Time;durP1;ratioP1;P1;durP2;ratioP2;P2;SDS_P1;SDS_P2;PMS_P1;PMS_P2;Temp;Humidity;BMP_temperature;BMP_pressure;BME280_temperature;BME280_humidity;BME280_pressure;Samples;Min_cycle;Max_cycle;Signal;HPM_P1;HPM_P2
2022/02/24 00:02:18;;;;;;;17.10;10.17;;;4.60;99.70;;;;;;5072492;28;20439;-69
2022/02/24 00:04:45;;;;;;;18.67;9.80;;;4.70;99.70;;;;;;5072487;28;20486;-66
2022/02/24 00:07:11;;;;;;;19.77;10.70;;;4.70;99.70;;;;;;5072441;28;20457;-68
2022/02/24 00:09:40;;;;;;;21.40;9.93;;;4.70;99.70;;;;;;5072301;28;20567;-67
2022/02/24 00:12:07;;;;;;;20.37;10.23;;;4.80;99.70;;;;;;5072702;28;20490;-69
2022/02/24 00:14:34;;;;;;;23.53;10.83;;;4.60;99.70;;;;;;5072010;28;20519;-68
2022/02/24 00:17:01;;;;;;;22.90;10.87;;;4.70;99.70;;;;;;5071829;28;20447;-67
2022/02/24 00:19:30;;;;;;;20.73;11.20;;;4.70;99.70;;;;;;5071761;28;20512;-65
2022/02/24 00:21:57;;;;;;;19.67;10.10;;;4.60;99.70;;;;;;5072011;28;20442;-68
2022/02/24 00:24:23;;;;;;;22.80;10.87;;;4.70;99.70;;;;;;5071752;28;20455;-68
2022/02/24 00:26:52;;;;;;;21.10;10.70;;;4.80;99.70;;;;;;5072059;28;20442;-67
2022/02/24 00:29:18;;;;;;;23.43;10.67;;;4.80;99.70;;;;;;5071844;28;20446;-67
2022/02/24 00:31:45;;;;;;;22.50;11.40;;;5.00;99.70;;;;;;5071625;28;20486;-67
2022/02/24 00:34:12;;;;;;;18.97;10.53;;;4.90;99.70;;;;;;5071599;28;20494;-67
2022/02/24 00:36:39;;;;;;;20.87;10.23;;;4.90;99.70;;;;;;5071844;28;20447;-68
2022/02/24 00:39:06;;;;;;;20.80;10.23;;;4.90;99.70;;;;;;5071476;28;20829;-67
2022/02/24 00:41:33;;;;;;;17.50;9.53;;;4.90;99.70;;;;;;5071552;28;20435;-68
2022/02/24 00:44:01;;;;;;;21.67;10.40;;;5.00;99.70;;;;;;5071511;28;20451;-68
2022/02/24 00:46:27;;;;;;;18.37;9.60;;;4.90;99.70;;;;;;5071384;28;20451;-67
2022/02/24 00:48:54;;;;;;;19.50;9.57;;;5.00;99.70;;;;;;5071385;28;20451;-67
2022/02/24 00:51:21;;;;;;;18.17;9.50;;;5.00;99.70;;;;;;5071619;28;20852;-67
2022/02/24 00:53:47;;;;;;;17.23;9.17;;;4.90;99.70;;;;;;5071628;28;20450;-67
2022/02/24 00:56:14;;;;;;;18.33;9.07;;;5.00;99.70;;;;;;5071123;28;20505;-69
2022/02/24 00:58:41;;;;;;;19.40;9.57;;;5.00;99.70;;;;;;5071442;28;20439;-67
2022/02/24 01:01:09;;;;;;;18.80;9.57;;;5.10;99.70;;;;;;5071335;28;20447;-67
2022/02/24 01:03:36;;;;;;;18.93;9.50;;;5.10;99.70;;;;;;5071301;28;20446;-67
2022/02/24 01:06:02;;;;;;;19.83;9.30;;;5.10;99.70;;;;;;5070768;28;20467;-68
2022/02/24 01:08:29;;;;;;;19.80;9.93;;;4.90;99.70;;;;;;5071210;28;20508;-68
2022/02/24 01:10:56;;;;;;;17.43;9.17;;;4.90;99.70;;;;;;5070981;28;20536;-67
2022/02/24 01:13:22;;;;;;;21.20;9.93;;;4.90;99.70;;;;;;5071188;28;20451;-67
2022/02/24 01:15:49;;;;;;;18.00;10.40;;;4.80;99.70;;;;;;5070763;28;20474;-67
2022/02/24 01:18:17;;;;;;;18.93;9.50;;;4.90;99.70;;;;;;5071074;28;20445;-67
2022/02/24 01:20:44;;;;;;;18.47;9.57;;;4.90;99.70;;;;;;5070110;28;20451;-67
2022/02/24 01:23:11;;;;;;;16.40;9.27;;;4.90;99.70;;;;;;5071095;28;20447;-67
2022/02/24 01:25:37;;;;;;;18.13;9.67;;;4.90;99.70;;;;;;5070523;28;20471;-67
2022/02/24 01:28:04;;;;;;;23.17;9.13;;;4.90;99.70;;;;;;5070789;28;20667;-69
2022/02/24 01:30:32;;;;;;;17.23;9.13;;;4.80;99.70;;;;;;5070930;28;20862;-67
2022/02/24 01:32:59;;;;;;;18.10;9.30;;;4.90;99.70;;;;;;5070667;28;20462;-68
2022/02/24 01:35:27;;;;;;;17.37;8.93;;;5.30;99.70;;;;;;5070281;28;20982;-67
2022/02/24 01:37:54;;;;;;;14.87;8.33;;;5.20;99.70;;;;;;5070756;28;20451;-67
2022/02/24 01:40:21;;;;;;;18.67;8.53;;;5.00;99.70;;;;;;5070949;28;20450;-67
2022/02/24 01:42:47;;;;;;;16.93;8.93;;;4.90;99.70;;;;;;5070846;28;20442;-68
2022/02/24 01:45:15;;;;;;;15.80;8.83;;;4.80;99.70;;;;;;5070135;28;20463;-68
2022/02/24 01:47:43;;;;;;;17.43;8.80;;;4.70;99.70;;;;;;5070732;28;20470;-67
2022/02/24 01:50:11;;;;;;;16.57;8.17;;;5.00;99.70;;;;;;5070573;28;20450;-68
2022/02/24 01:52:40;;;;;;;19.37;8.17;;;4.90;99.70;;;;;;5070966;28;21005;-68
2022/02/24 01:55:08;;;;;;;15.90;8.50;;;4.80;99.70;;;;;;5070203;28;20479;-68
2022/02/24 01:57:35;;;;;;;17.40;9.13;;;4.40;99.70;;;;;;5070809;28;20554;-67
2022/02/24 02:00:02;;;;;;;16.20;9.03;;;4.20;99.70;;;;;;5070559;28;20447;-67
2022/02/24 02:02:28;;;;;;;17.43;9.27;;;4.30;99.70;;;;;;5070629;28;20500;-67
2022/02/24 02:04:55;;;;;;;16.10;8.80;;;4.00;99.70;;;;;;5070252;28;20454;-68
2022/02/24 02:07:23;;;;;;;17.93;9.10;;;4.10;99.70;;;;;;5070642;28;20450;-67
2022/02/24 02:09:51;;;;;;;17.10;9.00;;;4.10;99.70;;;;;;5070718;28;20443;-68
2022/02/24 02:12:19;;;;;;;15.97;8.70;;;4.00;99.70;;;;;;5070844;28;20479;-67
2022/02/24 02:14:46;;;;;;;18.70;9.07;;;4.00;99.70;;;;;;5070327;28;20557;-64
2022/02/24 02:17:13;;;;;;;14.60;8.33;;;4.00;99.70;;;;;;5070748;28;20801;-67
2022/02/24 02:19:39;;;;;;;18.77;8.87;;;3.90;99.70;;;;;;5073755;28;20442;-67
2022/02/24 02:22:08;;;;;;;17.50;9.20;;;3.90;99.70;;;;;;5074435;28;20525;-67
2022/02/24 02:24:35;;;;;;;17.43;9.37;;;3.80;99.70;;;;;;5074621;28;20473;-67
2022/02/24 02:27:02;;;;;;;17.97;9.27;;;3.80;99.70;;;;;;5074097;28;20809;-67
2022/02/24 02:29:29;;;;;;;16.27;9.33;;;3.80;99.70;;;;;;5074258;28;20447;-67
2022/02/24 02:31:55;;;;;;;17.13;8.40;;;3.80;99.70;;;;;;5074213;28;20478;-67
2022/02/24 02:34:22;;;;;;;16.33;8.90;;;3.80;99.70;;;;;;5074428;28;20471;-69
2022/02/24 02:36:49;;;;;;;18.17;9.43;;;3.80;99.70;;;;;;5073833;28;20454;-67
2022/02/24 02:39:18;;;;;;;14.47;7.83;;;3.70;99.70;;;;;;5074225;28;20533;-67
2022/02/24 02:41:47;;;;;;;15.70;8.70;;;3.70;99.70;;;;;;5073973;28;20442;-67
2022/02/24 02:44:15;;;;;;;15.07;8.03;;;3.70;99.70;;;;;;5074002;28;20473;-67
2022/02/24 02:46:42;;;;;;;16.73;8.10;;;3.70;99.70;;;;;;5073614;28;20447;-67
2022/02/24 02:49:09;;;;;;;16.47;8.80;;;3.80;99.70;;;;;;5073853;28;20454;-67
2022/02/24 02:51:36;;;;;;;20.57;9.33;;;3.90;99.70;;;;;;5073865;28;20489;-68
2022/02/24 02:54:02;;;;;;;21.73;9.27;;;3.90;99.70;;;;;;5073662;28;20454;-68
2022/02/24 02:56:30;;;;;;;16.03;8.80;;;3.80;99.70;;;;;;5073491;28;20449;-67
2022/02/24 02:58:57;;;;;;;16.20;8.70;;;3.90;99.70;;;;;;5073745;28;20517;-67
2022/02/24 03:01:24;;;;;;;16.60;8.63;;;4.00;99.70;;;;;;5073518;28;20450;-68
2022/02/24 03:03:50;;;;;;;18.00;8.90;;;4.00;99.70;;;;;;5073761;28;20450;-67
2022/02/24 03:06:17;;;;;;;15.50;8.37;;;4.10;99.70;;;;;;5073284;28;20465;-67
2022/02/24 03:08:44;;;;;;;19.33;10.20;;;4.10;99.70;;;;;;5073473;28;20449;-67
2022/02/24 03:11:11;;;;;;;20.40;9.57;;;4.00;99.70;;;;;;5073389;28;20617;-67
2022/02/24 03:13:39;;;;;;;19.23;8.27;;;4.10;99.70;;;;;;5073526;28;20438;-67
2022/02/24 03:16:06;;;;;;;15.97;8.20;;;4.10;99.70;;;;;;5073001;28;21062;-67
2022/02/24 03:18:33;;;;;;;16.03;8.30;;;4.10;99.70;;;;;;5073486;28;20450;-68
2022/02/24 03:21:00;;;;;;;16.50;8.40;;;4.10;99.70;;;;;;5072708;28;20522;-67
2022/02/24 03:23:26;;;;;;;15.93;8.87;;;4.10;99.70;;;;;;5073202;28;20450;-67
2022/02/24 03:25:53;;;;;;;15.23;8.00;;;4.10;99.70;;;;;;5073091;28;20870;-67
2022/02/24 03:28:20;;;;;;;16.07;8.30;;;4.20;99.70;;;;;;5073001;28;20439;-67
2022/02/24 03:30:48;;;;;;;15.10;8.47;;;4.30;99.70;;;;;;5072060;28;20447;-67
2022/02/24 03:33:16;;;;;;;14.00;8.23;;;4.40;99.70;;;;;;5072979;28;20482;-68
2022/02/24 03:35:44;;;;;;;17.20;8.10;;;4.40;99.70;;;;;;5072752;28;21013;-67
2022/02/24 03:38:11;;;;;;;16.70;8.17;;;4.50;99.70;;;;;;5072832;28;20458;-67
2022/02/24 03:40:37;;;;;;;15.90;8.30;;;4.50;99.70;;;;;;5072986;28;20451;-66
2022/02/24 03:43:04;;;;;;;15.67;8.10;;;4.40;99.70;;;;;;5072896;28;20442;-67
2022/02/24 03:45:31;;;;;;;17.27;8.33;;;4.40;99.70;;;;;;5072637;28;20473;-68
2022/02/24 03:47:59;;;;;;;15.90;7.67;;;4.80;99.70;;;;;;5072700;28;20845;-68
2022/02/24 03:50:26;;;;;;;15.33;8.47;;;4.60;99.70;;;;;;5072796;28;20561;-67
2022/02/24 03:52:53;;;;;;;16.40;7.67;;;4.50;99.70;;;;;;5072704;28;20487;-67
2022/02/24 03:55:20;;;;;;;15.70;8.10;;;4.40;99.70;;;;;;5072257;28;20997;-68
2022/02/24 03:57:47;;;;;;;16.73;7.83;;;4.40;99.70;;;;;;5072513;28;20521;-67
2022/02/24 04:00:14;;;;;;;17.50;8.00;;;4.30;99.70;;;;;;5072474;28;20961;-67
2022/02/24 04:02:41;;;;;;;14.67;7.93;;;4.80;99.70;;;;;;5072404;28;20934;-67
2022/02/24 04:05:11;;;;;;;14.10;7.80;;;4.50;99.70;;;;;;5072078;28;20463;-67
2022/02/24 04:07:37;;;;;;;14.03;7.80;;;4.40;99.70;;;;;;5072582;28;20447;-67
2022/02/24 04:10:05;;;;;;;17.33;8.17;;;4.50;99.70;;;;;;5072324;28;20539;-67
2022/02/24 04:12:31;;;;;;;16.80;8.53;;;4.30;99.70;;;;;;5072132;28;20501;-66
2022/02/24 04:14:58;;;;;;;15.63;8.33;;;4.30;99.70;;;;;;5072089;28;20814;-67
2022/02/24 04:17:25;;;;;;;15.57;8.23;;;4.30;99.70;;;;;;5096470;22;20574;-64
2022/02/24 04:19:52;;;;;;;18.23;8.80;;;4.20;99.70;;;;;;5069691;28;20500;-64
2022/02/24 04:22:20;;;;;;;15.50;8.20;;;4.20;99.70;;;;;;5072214;28;20438;-64
2022/02/24 04:24:46;;;;;;;16.70;8.90;;;4.30;99.70;;;;;;5072314;28;20438;-58
2022/02/24 04:27:13;;;;;;;14.77;8.77;;;4.00;99.70;;;;;;5072333;28;20466;-65
2022/02/24 04:29:40;;;;;;;15.13;7.63;;;4.10;99.70;;;;;;5072698;28;20434;-63
2022/02/24 04:32:08;;;;;;;17.40;8.50;;;4.00;99.70;;;;;;5072305;28;20545;-64
2022/02/24 04:34:34;;;;;;;12.07;7.50;;;4.00;99.70;;;;;;5072393;28;20446;-64
2022/02/24 04:37:01;;;;;;;14.00;7.90;;;4.30;99.70;;;;;;5071978;28;20442;-62
2022/02/24 04:39:29;;;;;;;16.50;7.47;;;4.10;99.70;;;;;;5072112;28;20439;-62
2022/02/24 04:41:56;;;;;;;15.13;7.13;;;4.10;99.70;;;;;;5072069;28;20443;-62
2022/02/24 04:44:22;;;;;;;13.57;7.50;;;4.00;99.70;;;;;;5072104;28;20453;-64
2022/02/24 04:46:49;;;;;;;16.43;7.80;;;4.00;99.70;;;;;;5071815;28;20501;-62
2022/02/24 04:49:16;;;;;;;13.50;7.63;;;4.10;99.70;;;;;;5071988;28;20868;-63
2022/02/24 04:51:42;;;;;;;14.70;7.10;;;4.00;99.70;;;;;;5071964;28;20454;-65
2022/02/24 04:54:09;;;;;;;13.70;7.33;;;3.90;99.70;;;;;;5072144;28;20469;-64
2022/02/24 04:56:37;;;;;;;15.97;8.27;;;4.00;99.70;;;;;;5071711;28;20443;-63
2022/02/24 04:59:04;;;;;;;14.83;8.13;;;4.10;99.70;;;;;;5071745;28;20512;-62
2022/02/24 05:01:31;;;;;;;14.17;7.97;;;4.00;99.70;;;;;;5071942;28;20445;-64
2022/02/24 05:03:57;;;;;;;13.70;7.33;;;4.30;99.70;;;;;;5071909;28;20827;-66
2022/02/24 05:06:24;;;;;;;13.20;7.30;;;4.50;99.70;;;;;;5071456;28;20469;-64
2022/02/24 05:08:51;;;;;;;17.73;8.30;;;4.50;99.70;;;;;;5071592;28;20470;-63
2022/02/24 05:11:18;;;;;;;13.60;7.77;;;4.30;99.70;;;;;;5071630;28;20443;-62
2022/02/24 05:13:46;;;;;;;16.80;8.07;;;4.00;99.70;;;;;;5071456;28;20478;-63
2022/02/24 05:16:13;;;;;;;16.07;8.03;;;4.10;99.70;;;;;;5071309;28;20442;-64
2022/02/24 05:18:39;;;;;;;16.67;8.67;;;4.10;99.70;;;;;;5071218;28;20481;-63
2022/02/24 05:21:06;;;;;;;16.70;8.70;;;3.90;99.70;;;;;;5070772;28;20443;-63
2022/02/24 05:23:33;;;;;;;16.63;8.27;;;3.60;99.70;;;;;;5071395;28;20489;-64
2022/02/24 05:25:59;;;;;;;18.03;8.70;;;3.40;99.70;;;;;;5071307;28;20864;-62
2022/02/24 05:28:26;;;;;;;16.50;8.90;;;3.40;99.70;;;;;;5071125;28;20463;-63
2022/02/24 05:30:59;;;;;;;19.20;8.33;;;3.40;99.70;;;;;;5071451;28;20442;-62
2022/02/24 05:33:26;;;;;;;19.77;8.30;;;3.30;99.70;;;;;;5071541;28;20482;-66
2022/02/24 05:35:53;;;;;;;15.97;9.00;;;3.30;99.70;;;;;;5069420;28;20945;-64
2022/02/24 05:38:20;;;;;;;17.70;8.97;;;3.30;99.70;;;;;;5070632;28;20462;-66
2022/02/24 05:40:47;;;;;;;15.50;8.33;;;3.10;99.70;;;;;;5069030;28;20438;-65
2022/02/24 05:43:13;;;;;;;18.90;9.40;;;3.30;99.70;;;;;;5072899;28;20961;-65
2022/02/24 05:45:40;;;;;;;18.23;8.60;;;3.30;99.70;;;;;;5062708;28;20464;-65
2022/02/24 05:48:08;;;;;;;16.87;8.60;;;3.50;99.70;;;;;;5064851;28;20455;-61
2022/02/24 05:50:35;;;;;;;17.33;8.87;;;3.40;99.70;;;;;;5063046;28;20798;-61
2022/02/24 05:53:03;;;;;;;16.80;8.57;;;3.50;99.70;;;;;;5059685;28;20483;-61
2022/02/24 05:55:30;;;;;;;15.90;8.70;;;3.40;99.70;;;;;;5060130;28;20458;-63
2022/02/24 05:57:57;;;;;;;16.77;8.67;;;3.40;99.70;;;;;;5058879;28;20459;-63
2022/02/24 06:00:24;;;;;;;20.30;8.80;;;3.30;99.70;;;;;;5059715;28;20624;-64
2022/02/24 06:02:51;;;;;;;17.10;8.27;;;3.20;99.70;;;;;;5059952;28;20536;-61
2022/02/24 06:05:19;;;;;;;13.83;7.43;;;3.20;99.70;;;;;;5062364;28;20487;-64
2022/02/24 06:07:46;;;;;;;16.67;8.43;;;3.20;99.70;;;;;;5062840;28;20471;-64
2022/02/24 06:10:14;;;;;;;19.37;8.50;;;3.20;99.70;;;;;;5057329;28;20884;-58
2022/02/24 06:12:41;;;;;;;17.37;8.33;;;3.40;99.70;;;;;;5059691;28;20860;-63
2022/02/24 06:15:09;;;;;;;18.17;8.63;;;3.30;99.70;;;;;;5063462;28;20866;-61
2022/02/24 06:17:36;;;;;;;16.90;7.87;;;3.20;99.70;;;;;;5068391;28;20489;-66
2022/02/24 06:20:03;;;;;;;17.43;8.63;;;3.40;99.70;;;;;;5068361;28;20832;-62
2022/02/24 06:22:31;;;;;;;14.67;8.30;;;3.30;99.70;;;;;;5068787;28;20440;-64
2022/02/24 06:24:58;;;;;;;13.33;7.90;;;3.30;99.70;;;;;;5068525;28;20450;-62
2022/02/24 06:27:25;;;;;;;15.17;8.83;;;3.40;99.70;;;;;;5068164;28;20459;-65
2022/02/24 06:29:52;;;;;;;16.47;8.33;;;3.30;99.70;;;;;;5069127;28;20454;-63
2022/02/24 06:32:18;;;;;;;17.67;8.20;;;3.40;99.70;;;;;;5070538;28;20439;-65
2022/02/24 06:34:45;;;;;;;14.40;8.23;;;3.50;99.70;;;;;;5070584;28;20450;-63
2022/02/24 06:37:12;;;;;;;19.07;9.43;;;3.70;99.70;;;;;;5070430;28;20474;-63
2022/02/24 06:39:40;;;;;;;17.07;8.73;;;3.50;99.70;;;;;;5070420;28;20442;-63
2022/02/24 06:42:07;;;;;;;17.47;9.03;;;3.40;99.70;;;;;;5070554;28;20810;-61
2022/02/24 06:44:34;;;;;;;17.97;9.20;;;3.30;99.70;;;;;;5070328;28;20446;-62
2022/02/24 06:47:00;;;;;;;19.77;9.70;;;3.30;99.70;;;;;;5070016;28;20451;-62
2022/02/24 06:49:27;;;;;;;15.43;9.43;;;3.20;99.70;;;;;;5069173;28;20442;-62
2022/02/24 06:51:55;;;;;;;16.73;9.13;;;3.30;99.70;;;;;;5068837;28;20439;-64
2022/02/24 06:54:21;;;;;;;17.53;9.00;;;3.40;99.70;;;;;;5070426;28;20478;-63
2022/02/24 06:56:49;;;;;;;20.20;9.67;;;3.60;99.70;;;;;;5069977;28;20443;-66
2022/02/24 06:59:16;;;;;;;17.50;9.63;;;3.70;99.70;;;;;;5069963;28;20450;-64
2022/02/24 07:01:44;;;;;;;19.50;9.33;;;3.70;99.70;;;;;;5070395;28;21025;-63
2022/02/24 07:04:10;;;;;;;16.87;9.03;;;3.70;99.70;;;;;;5071913;28;20439;-63
2022/02/24 07:06:37;;;;;;;18.60;9.70;;;3.80;99.70;;;;;;5073481;28;20442;-63
2022/02/24 07:09:04;;;;;;;17.50;8.90;;;3.90;99.70;;;;;;5073923;28;20461;-63
2022/02/24 07:11:30;;;;;;;18.57;9.37;;;4.00;99.70;;;;;;5073901;28;20942;-64
2022/02/24 07:13:58;;;;;;;19.13;9.70;;;4.10;99.70;;;;;;5073918;28;20482;-66
2022/02/24 07:16:25;;;;;;;18.33;10.20;;;4.00;99.70;;;;;;5073664;28;20443;-63
2022/02/24 07:18:52;;;;;;;21.53;10.10;;;4.30;99.70;;;;;;5073694;28;21012;-63
2022/02/24 07:21:18;;;;;;;18.43;8.83;;;4.20;99.70;;;;;;5073327;28;20450;-63
2022/02/24 07:23:47;;;;;;;18.73;9.73;;;4.00;99.70;;;;;;5073687;28;20817;-63
2022/02/24 07:26:13;;;;;;;17.20;9.00;;;3.80;99.70;;;;;;5073268;28;20442;-63
2022/02/24 07:28:43;;;;;;;15.47;9.03;;;3.80;99.70;;;;;;5073430;28;20489;-65
2022/02/24 07:31:12;;;;;;;16.97;9.37;;;3.90;99.70;;;;;;5073805;28;20450;-63
2022/02/24 07:33:39;;;;;;;27.07;10.60;;;4.00;99.70;;;;;;5073392;28;20478;-64
2022/02/24 07:36:06;;;;;;;15.30;8.87;;;4.00;99.70;;;;;;5073060;28;20492;-62
2022/02/24 07:38:33;;;;;;;16.00;9.30;;;4.20;99.70;;;;;;5073239;28;20822;-64
2022/02/24 07:41:00;;;;;;;16.00;8.33;;;4.50;99.70;;;;;;5073353;28;20450;-63
2022/02/24 07:43:26;;;;;;;15.40;8.23;;;4.50;99.70;;;;;;5073586;28;20446;-62
2022/02/24 07:45:53;;;;;;;13.10;8.00;;;4.60;99.70;;;;;;5072895;28;20465;-66
2022/02/24 07:48:21;;;;;;;16.27;8.00;;;4.70;99.70;;;;;;5073053;28;20829;-63
2022/02/24 07:50:48;;;;;;;17.77;8.90;;;4.90;99.70;;;;;;5073422;28;20822;-64
2022/02/24 07:53:14;;;;;;;17.37;8.60;;;5.10;99.70;;;;;;5073040;28;20553;-61
2022/02/24 07:55:41;;;;;;;19.70;8.77;;;4.90;99.70;;;;;;5072866;28;20447;-64
2022/02/24 07:58:09;;;;;;;19.53;8.60;;;5.00;99.70;;;;;;5072513;28;20494;-63
2022/02/24 08:00:37;;;;;;;15.90;9.07;;;5.40;99.70;;;;;;5072979;28;20443;-63
2022/02/24 08:03:04;;;;;;;15.90;8.47;;;5.40;99.70;;;;;;5073023;28;20560;-61
2022/02/24 08:05:32;;;;;;;16.63;8.60;;;5.40;99.70;;;;;;5072473;28;20443;-61
2022/02/24 08:07:59;;;;;;;15.60;8.97;;;5.60;99.70;;;;;;5072630;28;20485;-61
2022/02/24 08:10:25;;;;;;;20.80;10.00;;;5.50;99.70;;;;;;5073037;28;20458;-63
2022/02/24 08:12:52;;;;;;;15.13;8.87;;;5.60;99.70;;;;;;5072791;28;20447;-61
2022/02/24 08:15:21;;;;;;;14.50;8.13;;;5.60;99.70;;;;;;5071614;28;21019;-63
2022/02/24 08:17:48;;;;;;;15.93;8.20;;;5.90;99.70;;;;;;5072252;28;20485;-66
2022/02/24 08:20:16;;;;;;;17.70;8.40;;;6.50;99.70;;;;;;5072274;28;20446;-66
2022/02/24 08:22:45;;;;;;;15.70;7.60;;;6.90;99.70;;;;;;5072619;28;20518;-64
2022/02/24 08:25:14;;;;;;;13.37;8.07;;;7.20;99.70;;;;;;5072512;28;20496;-64
2022/02/24 08:27:41;;;;;;;15.00;7.67;;;7.50;99.70;;;;;;5072431;28;20467;-63
2022/02/24 08:30:10;;;;;;;18.70;8.47;;;7.80;99.70;;;;;;5072579;28;20450;-66
2022/02/24 08:32:37;;;;;;;16.23;7.73;;;8.00;99.70;;;;;;5072499;28;20449;-63
2022/02/24 08:35:04;;;;;;;17.43;7.70;;;8.20;99.70;;;;;;5072268;28;20900;-66
2022/02/24 08:37:31;;;;;;;14.93;8.50;;;8.70;99.70;;;;;;5072055;28;20458;-63
2022/02/24 08:39:59;;;;;;;21.73;10.03;;;8.90;99.70;;;;;;5072293;28;20520;-61
2022/02/24 08:42:26;;;;;;;14.57;8.30;;;9.00;99.70;;;;;;5072160;28;20504;-62
2022/02/24 08:44:53;;;;;;;15.27;8.20;;;9.10;99.70;;;;;;5071182;28;20463;-64
2022/02/24 08:47:20;;;;;;;16.60;8.67;;;9.00;99.70;;;;;;5071729;28;20469;-63
2022/02/24 08:49:47;;;;;;;16.60;8.83;;;9.30;99.70;;;;;;5071783;28;20447;-63
2022/02/24 08:52:14;;;;;;;14.40;8.33;;;10.10;99.70;;;;;;5071948;28;20934;-62
2022/02/24 08:54:42;;;;;;;18.50;8.33;;;10.40;99.70;;;;;;5071778;28;20506;-64
2022/02/24 08:57:10;;;;;;;14.13;8.47;;;10.70;99.70;;;;;;5071319;28;20857;-63
2022/02/24 08:59:37;;;;;;;16.93;9.40;;;10.50;99.70;;;;;;5071661;28;20836;-62
2022/02/24 09:02:04;;;;;;;18.10;8.63;;;10.70;99.70;;;;;;5071413;28;20443;-65
2022/02/24 09:04:31;;;;;;;14.23;8.47;;;10.80;99.70;;;;;;5071715;28;20439;-62
2022/02/24 09:06:57;;;;;;;18.23;7.63;;;10.60;99.70;;;;;;5071112;28;20439;-61
2022/02/24 09:09:25;;;;;;;12.77;7.80;;;10.60;99.70;;;;;;5071481;28;20447;-65
2022/02/24 09:11:51;;;;;;;14.67;7.57;;;10.90;99.70;;;;;;5071586;28;20856;-61
2022/02/24 09:14:20;;;;;;;12.67;7.07;;;11.30;99.70;;;;;;5071110;28;20479;-64
2022/02/24 09:16:46;;;;;;;11.43;7.53;;;11.80;99.70;;;;;;5070993;28;20944;-64
2022/02/24 09:19:13;;;;;;;12.00;7.50;;;12.40;99.70;;;;;;5071263;28;20963;-63
2022/02/24 09:21:40;;;;;;;12.77;8.03;;;12.20;99.70;;;;;;5071064;28;20443;-61
2022/02/24 09:24:08;;;;;;;16.63;7.73;;;12.90;99.70;;;;;;5071260;28;20442;-62
2022/02/24 09:26:35;;;;;;;17.40;9.57;;;12.60;99.70;;;;;;5070795;28;20766;-62
2022/02/24 09:29:01;;;;;;;13.10;7.40;;;12.80;99.70;;;;;;5070514;28;20990;-62
2022/02/24 09:31:29;;;;;;;12.40;8.00;;;12.50;99.70;;;;;;5071528;28;20450;-61
2022/02/24 09:33:56;;;;;;;12.70;7.73;;;12.20;99.70;;;;;;5071290;28;20485;-62
2022/02/24 09:36:23;;;;;;;15.10;8.33;;;12.30;99.70;;;;;;5071090;28;20451;-63
2022/02/24 09:38:50;;;;;;;18.67;8.60;;;12.10;99.70;;;;;;5070582;28;20463;-65
2022/02/24 09:41:18;;;;;;;12.53;8.53;;;12.30;99.70;;;;;;5071182;28;20870;-64
2022/02/24 09:43:45;;;;;;;12.63;8.33;;;12.30;99.70;;;;;;5070948;28;20439;-64
2022/02/24 09:46:13;;;;;;;17.23;7.73;;;12.00;99.70;;;;;;5070505;28;20450;-65
2022/02/24 09:48:43;;;;;;;14.73;9.00;;;11.50;99.70;;;;;;5070842;28;20838;-63
2022/02/24 09:51:11;;;;;;;13.43;8.37;;;11.80;99.70;;;;;;5070775;28;20438;-63
2022/02/24 09:53:39;;;;;;;13.53;6.70;;;12.50;99.70;;;;;;5071300;28;20497;-63
2022/02/24 09:56:12;;;;;;;13.53;6.10;;;13.30;99.70;;;;;;5070802;28;20450;-64
2022/02/24 09:58:39;;;;;;;9.37;5.70;;;13.70;99.70;;;;;;5071039;28;20838;-64
2022/02/24 10:01:06;;;;;;;8.40;5.10;;;13.30;99.70;;;;;;5070049;28;20442;-63
2022/02/24 10:03:36;;;;;;;8.53;5.27;;;13.00;99.70;;;;;;5071213;28;20442;-63
2022/02/24 10:06:05;;;;;;;8.50;5.40;;;12.80;99.70;;;;;;5070839;28;20537;-64
2022/02/24 10:08:34;;;;;;;9.07;5.50;;;12.70;99.70;;;;;;5070997;28;20840;-63
2022/02/24 10:11:02;;;;;;;9.77;5.57;;;12.60;99.70;;;;;;5070925;28;20946;-62
2022/02/24 10:13:30;;;;;;;10.60;4.90;;;12.80;99.70;;;;;;5069816;28;20854;-64
2022/02/24 10:15:59;;;;;;;6.90;4.50;;;13.20;99.70;;;;;;5070568;28;20450;-61
2022/02/24 10:20:55;;;;;;;10.20;5.30;;;13.50;99.70;;;;;;5098609;22;20514;-64
2022/02/24 10:23:33;;;;;;;10.67;5.30;;;13.60;99.70;;;;;;5070436;28;20439;-64
2022/02/24 10:26:02;;;;;;;8.67;4.80;;;13.60;99.70;;;;;;5070725;28;20774;-64
2022/02/24 10:28:35;;;;;;;9.80;5.40;;;13.50;99.70;;;;;;5070840;28;20588;-64
2022/02/24 10:31:08;;;;;;;11.87;5.60;;;13.40;99.70;;;;;;5070414;28;20431;-64
2022/02/24 10:33:35;;;;;;;8.90;4.37;;;13.30;99.70;;;;;;5070883;28;20957;-64
2022/02/24 10:36:20;;;;;;;6.90;3.90;;;13.50;99.70;;;;;;5070365;28;20947;-64
2022/02/24 10:39:00;;;;;;;9.27;4.03;;;13.30;99.70;;;;;;5071730;28;20838;-64
2022/02/24 10:41:29;;;;;;;5.60;3.80;;;13.20;99.70;;;;;;5074693;28;20465;-66
2022/02/24 10:44:12;;;;;;;6.67;4.07;;;13.00;99.70;;;;;;5074669;28;20442;-64
2022/02/24 10:46:40;;;;;;;4.83;3.07;;;13.10;99.70;;;;;;5074300;28;20446;-64
2022/02/24 10:49:07;;;;;;;7.43;2.73;;;13.20;99.70;;;;;;5074260;28;20882;-64
2022/02/24 10:51:36;;;;;;;6.47;2.70;;;13.30;99.70;;;;;;5074386;28;20519;-65
2022/02/24 10:54:06;;;;;;;5.87;2.73;;;13.30;99.70;;;;;;5073469;28;20517;-64
2022/02/24 10:56:34;;;;;;;5.50;2.80;;;12.80;99.70;;;;;;5073535;28;20455;-64
2022/02/24 10:59:01;;;;;;;6.30;2.70;;;12.50;99.70;;;;;;5074077;28;20462;-64
2022/02/24 11:01:30;;;;;;;5.47;2.97;;;12.70;99.70;;;;;;5074324;28;20442;-65
2022/02/24 11:03:59;;;;;;;5.27;2.50;;;13.10;99.70;;;;;;5074097;28;20821;-65
2022/02/24 11:06:28;;;;;;;5.00;2.60;;;13.30;99.70;;;;;;5073861;28;20449;-65
2022/02/24 11:08:58;;;;;;;5.67;2.70;;;13.10;99.70;;;;;;5073874;28;20498;-65
2022/02/24 11:11:28;;;;;;;3.90;2.37;;;13.10;99.70;;;;;;5074132;28;20453;-65
2022/02/24 11:13:56;;;;;;;6.30;2.60;;;13.30;99.70;;;;;;5073898;28;20879;-65
2022/02/24 11:16:23;;;;;;;3.97;2.30;;;13.10;99.70;;;;;;5073739;28;20443;-66
2022/02/24 11:18:51;;;;;;;4.47;2.53;;;12.70;99.70;;;;;;5073823;28;20466;-65
2022/02/24 11:21:21;;;;;;;7.47;2.80;;;12.80;99.70;;;;;;5073678;28;20965;-65
2022/02/24 11:23:49;;;;;;;4.93;2.70;;;12.90;99.70;;;;;;5073980;28;20486;-65
2022/02/24 11:26:39;;;;;;;5.40;2.40;;;12.90;99.70;;;;;;5073552;28;20442;-64
2022/02/24 11:29:14;;;;;;;4.27;2.80;;;12.30;99.70;;;;;;5073581;28;20458;-65
2022/02/24 11:31:49;;;;;;;5.70;2.73;;;12.60;99.70;;;;;;5073512;28;20998;-65
2022/02/24 11:34:15;;;;;;;4.37;2.40;;;12.90;99.70;;;;;;5073654;28;20470;-65
2022/02/24 11:36:44;;;;;;;5.63;2.83;;;12.90;99.70;;;;;;5073291;28;20441;-65
2022/02/24 11:39:12;;;;;;;8.30;2.77;;;12.90;99.70;;;;;;5073298;28;20466;-65
2022/02/24 11:41:55;;;;;;;4.43;2.60;;;12.80;99.70;;;;;;5073622;28;20443;-65
2022/02/24 11:44:40;;;;;;;3.80;2.33;;;13.10;99.70;;;;;;5073486;28;20446;-65
2022/02/24 11:47:08;;;;;;;4.73;2.87;;;13.20;99.70;;;;;;5073393;28;20991;-65
2022/02/24 11:50:18;;;;;;;3.63;2.63;;;13.10;99.70;;;;;;5072762;28;20982;-65
2022/02/24 11:52:50;;;;;;;6.33;2.90;;;12.90;99.70;;;;;;5073341;28;20447;-65
2022/02/24 11:55:42;;;;;;;5.63;2.17;;;13.00;99.70;;;;;;5072923;28;20969;-64
2022/02/24 11:58:32;;;;;;;4.67;2.10;;;13.20;99.70;;;;;;5063887;28;20453;-65
2022/02/24 12:01:29;;;;;;;5.93;2.10;;;13.10;99.70;;;;;;5073165;28;20511;-64
2022/02/24 12:04:05;;;;;;;3.30;1.90;;;13.00;99.70;;;;;;5073240;28;21016;-65
2022/02/24 12:06:47;;;;;;;6.80;2.47;;;13.30;99.70;;;;;;5072878;28;20503;-65
2022/02/24 12:09:19;;;;;;;4.30;2.00;;;13.10;99.70;;;;;;5072565;28;20997;-65
2022/02/24 12:11:48;;;;;;;4.17;2.37;;;13.30;99.70;;;;;;5073050;28;20461;-65
2022/02/24 12:14:42;;;;;;;4.83;2.10;;;13.30;99.50;;;;;;5072602;28;20474;-65
2022/02/24 12:17:11;;;;;;;3.70;2.20;;;13.00;99.70;;;;;;5072669;28;20450;-65
2022/02/24 12:19:40;;;;;;;3.33;2.10;;;12.90;99.70;;;;;;5072112;28;20474;-64
2022/02/24 12:22:20;;;;;;;5.17;2.40;;;12.90;99.70;;;;;;5072904;28;20446;-64
2022/02/24 12:24:49;;;;;;;5.23;2.30;;;13.10;98.80;;;;;;5072307;28;20974;-64
2022/02/24 12:27:33;;;;;;;5.83;2.47;;;13.10;99.70;;;;;;5072622;28;20526;-64
2022/02/24 12:30:18;;;;;;;5.10;2.43;;;13.00;99.70;;;;;;5072032;28;20474;-65
2022/02/24 12:32:47;;;;;;;4.33;2.07;;;12.90;99.70;;;;;;5069709;28;20548;-65
2022/02/24 12:35:16;;;;;;;15.73;2.90;;;13.10;99.70;;;;;;5072224;28;20489;-66
2022/02/24 12:37:43;;;;;;;6.43;2.63;;;13.30;98.20;;;;;;5072373;28;20450;-64
2022/02/24 12:40:15;;;;;;;5.77;2.30;;;13.40;98.60;;;;;;5072271;28;20554;-65
2022/02/24 12:42:41;;;;;;;5.67;2.10;;;13.10;99.70;;;;;;5072466;28;20443;-65
2022/02/24 12:45:10;;;;;;;4.53;2.00;;;13.30;98.10;;;;;;5072001;28;20445;-65
2022/02/24 12:47:37;;;;;;;4.43;2.10;;;13.30;98.30;;;;;;5072324;28;20823;-65
2022/02/24 12:50:05;;;;;;;7.70;2.20;;;13.20;98.40;;;;;;5072324;28;20485;-64
2022/02/24 12:52:31;;;;;;;4.43;2.30;;;12.90;98.50;;;;;;5072168;28;20952;-65
2022/02/24 12:55:00;;;;;;;3.43;2.10;;;13.10;98.80;;;;;;5071646;28;20474;-65